WetterOnline ( https://www.wetteronline.de )

Wetter aktuell Niesky

Aktuelles Wetter: Görlitz (240m)

6-stündlich | Neueste Meldungen
Ortszeit Temperatur Wetter
Sa, 01.10. 20:00 9.6° C wolkig
Sa, 01.10. 14:00 12.7° C leichter Regen
Sa, 01.10. 8:00 9.5° C bewölkt
Sa, 01.10. 2:00 7.5° C wolkenlos
Fr, 30.09. 20:00 11.1° C wolkig
Fr, 30.09. 14:00 15.1° C wolkenlos
Fr, 30.09. 8:00 5.3° C bedeckt
Fr, 30.09. 2:00 3.9° C Nebel
Ortszeit Temperatur Wetter
Sa, 01.10. 22:00 10.8° C wolkig
Sa, 01.10. 21:50 10.8° C wolkig
Sa, 01.10. 21:40 10.9° C leicht bewölkt
Sa, 01.10. 21:30 10.6° C wolkig
Sa, 01.10. 21:20 10.6° C wolkig
Sa, 01.10. 21:10 10.5° C bedeckt
Sa, 01.10. 21:00 10.6° C bedeckt
Sa, 01.10. 20:30 10.2° C wolkig
Sa, 01.10. 20:00 9.6° C wolkig
Sa, 01.10. 19:30 10.4° C bedeckt
Sa, 01.10. 19:00 10.5° C bewölkt
Ortszeit Relative Feuchte Sichtweite
Sa, 01.10. 20:00 92% 45 km
Sa, 01.10. 14:00 73% 29 km
Sa, 01.10. 8:00 81% 28 km
Sa, 01.10. 2:00 83% 30 km
Fr, 30.09. 20:00 76% 21 km
Fr, 30.09. 14:00 52% 45 km
Fr, 30.09. 8:00 99% 12 km
Fr, 30.09. 2:00 99% 100 m
Ortszeit Relative Feuchte Sichtweite
Sa, 01.10. 22:00 87% 60 km
Sa, 01.10. 21:50 87% -
Sa, 01.10. 21:40 87% -
Sa, 01.10. 21:30 88% 65 km
Sa, 01.10. 21:20 88% -
Sa, 01.10. 21:10 89% -
Sa, 01.10. 21:00 89% 55 km
Sa, 01.10. 20:30 90% 50 km
Sa, 01.10. 20:00 92% 45 km
Sa, 01.10. 19:30 90% 50 km
Sa, 01.10. 19:00 89% 50 km
Ortszeit Niederschlagsmenge Niederschlagsart
Sa, 01.10. 20:00 3 l/m2 in 12 Std. Regen
Sa, 01.10. 14:00 0.1 l/m2 in 6 Std. Regen
Sa, 01.10. 8:00 0.0 l/m2 in 12 Std. -
Sa, 01.10. 2:00 0.0 l/m2 in 6 Std. -
Fr, 30.09. 20:00 0.0 l/m2 in 12 Std. -
Fr, 30.09. 14:00 0.0 l/m2 in 6 Std. -
Fr, 30.09. 8:00 0.0 l/m2 in 12 Std. -
Fr, 30.09. 2:00 0.0 l/m2 in 6 Std. -
Ortszeit Niederschlagsmenge Niederschlagsart
Sa, 01.10. 22:00 0.0 l/m2 in 1 Std. -
Sa, 01.10. 21:50 keine Meldung -
Sa, 01.10. 21:40 keine Meldung -
Sa, 01.10. 21:30 0.0 l/m2 in 1 Std. -
Sa, 01.10. 21:20 keine Meldung -
Sa, 01.10. 21:10 keine Meldung -
Sa, 01.10. 21:00 0.0 l/m2 in 1 Std. -
Sa, 01.10. 20:30 0.0 l/m2 in 1 Std. -
Sa, 01.10. 20:00 <0.05 l/m2 in 1 Std. Regen
Sa, 01.10. 19:30 <0.05 l/m2 in 1 Std. Schneeregen
Sa, 01.10. 19:00 0.1 l/m2 in 1 Std. Regen
Ortszeit Stärke Spitze Richtung
km/h Bft. km/h Grad Sektor
Sa, 01.10. 20:00 17 3 46 210° SW
Sa, 01.10. 14:00 25 4 47 200° S
Sa, 01.10. 8:00 14 3 32 200° S
Sa, 01.10. 2:00 9 2 13 200° S
Fr, 30.09. 20:00 0 0 11 - -
Fr, 30.09. 14:00 6 1 11 360° N
Fr, 30.09. 8:00 4 1 11 190° S
Fr, 30.09. 2:00 4 1 7 140° SO
Ortszeit Stärke Spitze Richtung
km/h Bft. km/h Grad Sektor
Sa, 01.10. 22:00 19 3 28 230° SW
Sa, 01.10. 21:50 19 3 - 230° SW
Sa, 01.10. 21:40 19 3 - 220° SW
Sa, 01.10. 21:30 14 3 22 220° SW
Sa, 01.10. 21:20 14 3 - 220° SW
Sa, 01.10. 21:10 17 3 - 220° SW
Sa, 01.10. 21:00 19 3 24 220° SW
Sa, 01.10. 20:30 17 3 22 220° SW
Sa, 01.10. 20:00 17 3 30 210° SW
Sa, 01.10. 19:30 22 4 29 220° SW
Sa, 01.10. 19:00 22 4 36 220° SW
Ortszeit Untergrenze Bedeckung Gattung
total tief tief mittel hoch
Sa, 01.10. 20:00 750 m 5/8 5/8 - - -
Sa, 01.10. 14:00 1500 m 7/8 7/8 - - -
Sa, 01.10. 8:00 1500 m 8/8 7/8 - - -
Sa, 01.10. 2:00 - 0/8 0/8 - - -
Fr, 30.09. 20:00 2100 m 7/8 4/8 - - -
Fr, 30.09. 14:00 - 0/8 0/8 - - -
Fr, 30.09. 8:00 2700 m 8/8 8/8 - - -
Fr, 30.09. 2:00 4200 m 8/8 7/8 - - -
Ortszeit Bedeckungsgrad in Achtel und Wolkenuntergrenze
Sa, 01.10. 22:00 1(1470m) 5(2100m)
Sa, 01.10. 21:50 1(1470m) 5(2100m)
Sa, 01.10. 21:40 4
Sa, 01.10. 21:30 6(1380m)
Sa, 01.10. 21:20 6(1380m)
Sa, 01.10. 21:10 8
Sa, 01.10. 21:00 1(660m) 8(1350m)
Sa, 01.10. 20:30 1(720m) 3(1380m) 6(1500m)
Sa, 01.10. 20:00 1(750m) 5(1500m)
Sa, 01.10. 19:30 3(750m) 5(1260m) 8(1500m)
Sa, 01.10. 19:00 7
Ortszeit Luftdruck NN (hPa) Tendenz (hPa in 3 Std.)
Sa, 01.10. 20:00 1008 + 0,7
Sa, 01.10. 14:00 1008 - 2,0
Sa, 01.10. 8:00 1012 - 0,6
Sa, 01.10. 2:00 1014 + 0,2
Fr, 30.09. 20:00 1013 + 0,6
Fr, 30.09. 14:00 1012 + 0,2
Fr, 30.09. 8:00 1011 + 1,3
Fr, 30.09. 2:00 1010 + 1,2
Ortszeit Luftdruck NN (hPa) Tendenz (hPa in 3 Std.)
Sa, 01.10. 22:00 1009 + 0,9
Sa, 01.10. 21:50 1009 keine Meldung
Sa, 01.10. 21:40 1009 keine Meldung
Sa, 01.10. 21:30 1009 + 1,1
Sa, 01.10. 21:20 1009 keine Meldung
Sa, 01.10. 21:10 1009 keine Meldung
Sa, 01.10. 21:00 1009 + 1,1
Sa, 01.10. 20:30 1009 + 1,0
Sa, 01.10. 20:00 1008 + 0,7
Sa, 01.10. 19:30 1008 + 0,1
Sa, 01.10. 19:00 1008 - 0,1
Ortszeit Schneehöhe (cm)
Sa, 01.10. 20:00 0
Sa, 01.10. 14:00 0
Sa, 01.10. 8:00 0
Sa, 01.10. 2:00 0
Fr, 30.09. 20:00 0
Fr, 30.09. 14:00 0
Fr, 30.09. 8:00 0
Fr, 30.09. 2:00 0
Ortszeit Schneehöhe (cm)
Sa, 01.10. 22:00 0
Sa, 01.10. 21:50 0
Sa, 01.10. 21:40 0
Sa, 01.10. 21:30 0
Sa, 01.10. 21:20 0
Sa, 01.10. 21:10 0
Sa, 01.10. 21:00 0
Sa, 01.10. 20:30 0
Sa, 01.10. 20:00 0
Sa, 01.10. 19:30 0
Sa, 01.10. 19:00 0
Link zu dieser Seite / Seite empfehlen

Das Wetter in ...